関西国際空港の過去48時間の天気

関西国際空港 (Kansai intl)

現在時刻: 7/18 13:56 JST (7/18 04:56 UTC) 以下の時間は現地時間です。

過去48時間のMETAR気象情報
時間 風向 風速(m/s) 視程 気温(℃) 湿度(%) 気圧(hPa) 天気現象
18 13:30 西 3 10km以上 34 60 1010
18 13:00 西北西 3 10km以上 33 59 1010
18 12:30 西北西 3 10km以上 33 59 1010
18 12:00 西北西 2 10km以上 33 59 1010
18 11:30 北西 3 10km以上 33 56 1011
18 11:00 西北西 2 10km以上 32 63 1011
18 10:30 西北西 3 10km以上 31 66 1011
18 10:00 西北西 3 10km以上 31 66 1011
18 09:30 西 3 10km以上 31 70 1011
18 09:00 西北西 2 10km以上 31 66 1011
18 08:30 西 2 10km以上 30 70 1011
18 08:00 西 2 10km以上 29 79 1011
18 07:30 不定 1 10km以上 28 84 1012
18 07:00 西南西 2 10km以上 27 89 1012
18 06:30 南南西 2 10km以上 27 89 1012
18 06:00 南西 2 10km以上 26 89 1012
18 05:30 南西 2 10km以上 26 89 1012
18 05:00 南西 2 10km以上 26 84 1012
18 04:30 西南西 2 10km以上 26 84 1012
18 04:00 西南西 3 10km以上 26 89 1011
18 03:30 南西 2 10km以上 26 89 1011
18 03:00 南西 3 10km以上 26 89 1011
18 02:30 南西 3 10km以上 26 89 1011
18 02:00 西南西 4 10km以上 26 89 1011
18 01:30 南西 3 10km以上 26 84 1011
18 01:00 南西 3 10km以上 26 89 1011
18 00:30 南西 4 10km以上 27 84 1011
18 00:00 南西 4 10km以上 27 84 1011
17 23:30 南西 5 10km以上 27 84 1011
17 23:00 南西 4 10km以上 27 84 1011
17 22:30 南西 5 10km以上 27 84 1011
17 22:00 南南西 6 10km以上 27 84 1011
17 21:30 南西 5 10km以上 28 79 1011
17 21:00 南西 6 10km以上 28 79 1011
17 20:30 南西 6 10km以上 28 74 1011
17 20:00 南西 6 10km以上 28 79 1010
17 19:30 南南西 6 10km以上 28 79 1010
17 19:00 南南西 6 10km以上 28 79 1010
17 18:30 南南西 7 10km以上 28 84 1010
17 18:00 南南西 8 10km以上 29 79 1010
17 17:30 南西 6 10km以上 30 75 1010
17 17:00 南西 6 10km以上 31 70 1010
17 16:30 西南西 6 10km以上 31 70 1010
17 16:00 西南西 5 10km以上 32 67 1010
17 15:30 西南西 5 10km以上 32 67 1010
17 15:00 西南西 5 10km以上 34 60 1010
17 14:30 西南西 5 10km以上 33 59 1010
17 14:00 西南西 4 10km以上 33 59 1011
17 13:30 南西 5 10km以上 33 59 1011
17 13:00 西南西 5 10km以上 33 56 1011
17 12:30 西南西 6 10km以上 33 56 1011
17 12:28 西南西 6 10km以上 34 56 1011
17 12:00 西南西 5 10km以上 32 63 1012
17 11:30 西南西 5 10km以上 32 63 1012
17 11:00 西南西 6 10km以上 32 67 1012
17 10:30 西南西 5 10km以上 31 70 1012
17 10:00 西南西 5 10km以上 32 67 1012
17 09:30 西南西 4 9000m 31 70 1012
17 09:00 西 3 9000m 30 75 1013
17 08:30 西 3 8000m 29 79 1013
17 08:00 西 3 8000m 29 79 1013
17 07:00 西南西 2 8000m 28 84 1013
17 06:00 南西 2 9000m 27 89 1013
17 05:00 南西 3 8000m 26 94 1012
17 04:30 南西 4 10km以上 26 89 1012
17 04:00 南西 3 10km以上 26 89 1012
17 03:30 南南西 4 8000m 26 94 1012
17 03:00 南西 4 6000m 26 89 1012
17 02:30 西南西 4 6000m 27 84 1012
17 02:00 西南西 3 6000m 27 89 1012
17 01:30 西南西 3 6000m 26 89 1012
17 01:00 南西 3 7000m 27 89 1011
17 00:30 南西 3 6000m 27 84 1012
17 00:00 南西 4 8000m 28 79 1012
16 23:30 南西 4 6000m 27 89 1012
16 23:18 西南西 4 6000m 28 79 1012
16 23:00 西南西 3 5000m 28 79 1012 もや
16 22:30 西南西 4 9000m 28 79 1012
16 22:00 南西 4 9000m 28 84 1012
16 21:30 南西 3 9000m 28 84 1012
16 21:00 南西 4 9000m 28 84 1012
16 20:30 南西 5 8000m 28 84 1012
16 20:00 南西 6 10km以上 28 84 1011
16 19:30 南西 6 10km以上 28 84 1011
16 19:00 南西 5 10km以上 29 79 1011
16 18:30 南西 6 10km以上 29 79 1010
16 18:00 南西 6 10km以上 30 70 1010
16 17:30 南西 5 10km以上 31 70 1010
16 17:00 南西 5 10km以上 33 67 1010
16 16:30 西南西 5 10km以上 33 67 1010
16 16:00 南西 5 10km以上 32 67 1010
16 15:40 南西 4 10km以上 33 63 1010
16 15:30 西南西 4 10km以上 31 75 1011
16 15:00 西南西 3 10km以上 31 75 1011
16 14:30 西南西 3 10km以上 33 56 1011
16 14:00 西 3 10km以上 34 56 1011
RJBB 180430Z 27006KT 9999 FEW030 BKN/// 34/25 Q1010 NOSIG
RJBB 180400Z 30005KT 9999 FEW030 BKN/// 33/24 Q1010 NOSIG
RJBB 180330Z 30005KT 9999 FEW030 BKN/// 33/24 Q1010 NOSIG
RJBB 180300Z 30004KT 9999 FEW030 BKN/// 33/24 Q1010 NOSIG
RJBB 180230Z 31005KT 9999 FEW030 BKN/// 33/23 Q1011 NOSIG
RJBB 180200Z 30004KT 9999 FEW030 SCT/// 32/24 Q1011 NOSIG
RJBB 180130Z 29005KT 9999 FEW030 SCT/// 31/24 Q1011 NOSIG
RJBB 180100Z 29006KT 9999 FEW030 SCT/// 31/24 Q1011 NOSIG
RJBB 180030Z 28005KT 9999 FEW030 31/25 Q1011 NOSIG
RJBB 180000Z 29003KT 9999 FEW035 SCT/// 31/24 Q1011 NOSIG
RJBB 172330Z 27003KT 9999 FEW030 SCT/// 30/24 Q1011 NOSIG
RJBB 172300Z 28003KT 260V320 9999 FEW030 SCT/// 29/25 Q1011 NOSIG
RJBB 172230Z VRB02KT 9999 FEW025 SCT/// 28/25 Q1012 NOSIG
RJBB 172200Z 25003KT 200V270 9999 FEW025 BKN/// 27/25 Q1012 NOSIG
RJBB 172130Z 21004KT 170V260 9999 FEW025 BKN/// 27/25 Q1012 NOSIG
RJBB 172100Z 22004KT 9999 FEW025 BKN/// 26/24 Q1012 NOSIG
RJBB 172030Z AUTO 23004KT 9999 FEW040 26/24 Q1012 NOSIG
RJBB 172000Z AUTO 23004KT 9999 FEW039 26/23 Q1012 NOSIG
RJBB 171930Z AUTO 24004KT 9999 FEW040 26/23 Q1012 NOSIG
RJBB 171900Z AUTO 24005KT 9999 SCT038 26/24 Q1011 NOSIG
RJBB 171830Z AUTO 23004KT 9999 SCT039 26/24 Q1011 NOSIG
RJBB 171800Z AUTO 23006KT 9999 FEW038 26/24 Q1011 NOSIG
RJBB 171730Z AUTO 23006KT 9999 BKN038 26/24 Q1011 NOSIG
RJBB 171700Z AUTO 24008KT 9999 NCD 26/24 Q1011 NOSIG
RJBB 171630Z AUTO 23006KT 9999 NCD 26/23 Q1011 NOSIG
RJBB 171600Z AUTO 22005KT 9999 NCD 26/24 Q1011 NOSIG
RJBB 171530Z AUTO 23007KT 9999 FEW050 27/24 Q1011 NOSIG
RJBB 171500Z AUTO 23007KT 9999 NSC 27/24 Q1011 NOSIG
RJBB 171430Z AUTO 23010KT 9999 NSC 27/24 Q1011 NOSIG
RJBB 171400Z AUTO 22008KT 9999 NSC 27/24 Q1011 NOSIG
RJBB 171330Z 22009KT 9999 FEW030 SCT150 BKN/// 27/24 Q1011 NOSIG
RJBB 171300Z 21011KT 9999 FEW030 SCT150 BKN/// 27/24 Q1011 NOSIG
RJBB 171230Z 22010KT 9999 FEW030 SCT150 BKN/// 28/24 Q1011 NOSIG
RJBB 171200Z 22011KT 9999 FEW030 BKN/// 28/24 Q1011 NOSIG
RJBB 171130Z 22011KT 9999 FEW030 BKN/// 28/23 Q1011 NOSIG
RJBB 171100Z 22012KT 9999 FEW030 BKN/// 28/24 Q1010 NOSIG
RJBB 171030Z 21012KT 9999 FEW030 BKN/// 28/24 Q1010 NOSIG
RJBB 171000Z 21012KT 9999 FEW030 BKN/// 28/24 Q1010 NOSIG
RJBB 170930Z 21013KT 9999 FEW030 BKN/// 28/25 Q1010 NOSIG
RJBB 170900Z 21015KT 9999 FEW030 BKN/// 29/25 Q1010 NOSIG
RJBB 170830Z 23011KT 9999 FEW025 BKN/// 30/25 Q1010 NOSIG
RJBB 170800Z 23012KT 9999 FEW025 BKN/// 31/25 Q1010 NOSIG
RJBB 170730Z 24012KT 9999 FEW025 BKN/// 31/25 Q1010 NOSIG
RJBB 170700Z 24010KT 9999 FEW025 BKN/// 32/25 Q1010 NOSIG
RJBB 170630Z 24010KT 9999 FEW025 BKN/// 32/25 Q1010 NOSIG
RJBB 170600Z 24009KT 9999 FEW025 BKN/// 34/25 Q1010 NOSIG
RJBB 170530Z 24009KT 9999 FEW025 BKN/// 33/24 Q1010 NOSIG
RJBB 170500Z 24007KT 9999 FEW025 BKN/// 33/24 Q1011 NOSIG
RJBB 170430Z 23009KT CAVOK 33/24 Q1011 NOSIG
RJBB 170400Z 24010KT 9999 FEW025 BKN/// 33/23 Q1011 NOSIG
RJBB 170330Z 24011KT 9999 FEW025 BKN/// 33/23 Q1011 NOSIG
RJBB 170328Z 24011KT 9999 FEW025 BKN/// 34/24 Q1011 RMK 1CU025 A2988
RJBB 170300Z 25009KT 9999 FEW025 BKN/// 32/24 Q1012 NOSIG
RJBB 170230Z 25010KT 9999 FEW025 BKN/// 32/24 Q1012 NOSIG
RJBB 170200Z 25011KT 9999 FEW030 BKN/// 32/25 Q1012 NOSIG
RJBB 170130Z 25009KT 9999 FEW030 BKN/// 31/25 Q1012 NOSIG
RJBB 170100Z 25010KT 9999 FEW035 BKN/// 32/25 Q1012 NOSIG
RJBB 170030Z 25008KT 9000 FEW035 BKN/// 31/25 Q1012 NOSIG
RJBB 170000Z 27006KT 9000 FEW035 BKN/// 30/25 Q1013 NOSIG
RJBB 162330Z 26006KT 8000 FEW035 BKN/// 29/25 Q1013 NOSIG
RJBB 162300Z 26005KT 8000 FEW035 BKN/// 29/25 Q1013 NOSIG
RJBB 162200Z 25004KT 8000 NSC 28/25 Q1013 NOSIG
RJBB 162100Z 23003KT 9000 NSC 27/25 Q1013 NOSIG
RJBB 162000Z AUTO 22005KT 8000 NCD 26/25 Q1012 NOSIG
RJBB 161930Z AUTO 22007KT 9999 NCD 26/24 Q1012 NOSIG
RJBB 161900Z AUTO 22005KT 9999 NCD 26/24 Q1012 NOSIG
RJBB 161830Z AUTO 21007KT 8000 NCD 26/25 Q1012 NOSIG
RJBB 161800Z AUTO 22008KT 6000 NCD 26/24 Q1012 NOSIG
RJBB 161730Z AUTO 24007KT 6000 NCD 27/24 Q1012 NOSIG
RJBB 161700Z AUTO 24005KT 6000 NCD 27/25 Q1012 NOSIG
RJBB 161630Z AUTO 24005KT 6000 NCD 26/24 Q1012 NOSIG
RJBB 161600Z AUTO 23005KT 7000 NSC 27/25 Q1011 NOSIG
RJBB 161530Z AUTO 23006KT 6000 NSC 27/24 Q1012 NOSIG
RJBB 161500Z AUTO 23008KT 8000 NSC 28/24 Q1012 NOSIG
RJBB 161430Z AUTO 23008KT 6000 NSC 27/25 Q1012 NOSIG
RJBB 161418Z AUTO 24008KT 6000 NSC 28/24 Q1012 RMK A2989
RJBB 161400Z AUTO 24006KT 5000 BR NSC 28/24 Q1012 NOSIG
RJBB 161330Z 24007KT 9000 NSC 28/24 Q1012 NOSIG
RJBB 161300Z 23007KT 9000 NSC 28/25 Q1012 NOSIG
RJBB 161230Z 23005KT 9000 NSC 28/25 Q1012 NOSIG
RJBB 161200Z 23007KT 9000 NSC 28/25 Q1012 NOSIG
RJBB 161130Z 23009KT 8000 NSC 28/25 Q1012 NOSIG
RJBB 161100Z 22011KT 9999 FEW040 BKN/// 28/25 Q1011 NOSIG
RJBB 161030Z 23012KT 9999 FEW040 BKN/// 28/25 Q1011 NOSIG
RJBB 161000Z 22010KT 9999 FEW030 BKN/// 29/25 Q1011 NOSIG
RJBB 160930Z 23011KT 9999 FEW030 BKN/// 29/25 Q1010 NOSIG
RJBB 160900Z 22012KT 9999 FEW030 SCT/// 30/24 Q1010 NOSIG
RJBB 160830Z 23010KT 9999 FEW030 SCT/// 31/25 Q1010 NOSIG
RJBB 160800Z 23010KT 9999 FEW030 SCT/// 33/26 Q1010 NOSIG
RJBB 160730Z 24009KT 9999 FEW035 SCT/// 33/26 Q1010 NOSIG
RJBB 160700Z 23009KT 9999 FEW035 BKN/// 32/25 Q1010 NOSIG
RJBB 160640Z 23008KT 9999 FEW035 BKN/// 33/25 Q1010 RMK 1CU035 A2985
RJBB 160630Z 24007KT 9999 FEW035 BKN/// 31/26 Q1011 NOSIG
RJBB 160600Z 25005KT 9999 FEW035 BKN/// 31/26 Q1011 NOSIG
RJBB 160530Z 24005KT 9999 FEW035 BKN/// 33/23 Q1011 NOSIG
RJBB 160500Z 26006KT 9999 FEW035 BKN/// 34/24 Q1011 NOSIG